Time;durP1;ratioP1;P1;durP2;ratioP2;P2;SDS_P1;SDS_P2;PMS_P1;PMS_P2;Temp;Humidity;BMP_temperature;BMP_pressure;BME280_temperature;BME280_humidity;BME280_pressure;Samples;Min_cycle;Max_cycle;Signal;HPM_P1;HPM_P2
2023/10/11 00:02:08;;;;;;;5.63;3.13;;;;;;;11.82;80.67;100732.22;6193321;28;20133;-71
2023/10/11 00:05:10;;;;;;;9.35;5.10;;;;;;;11.83;81.02;100736.56;6194203;28;20050;-72
2023/10/11 00:08:13;;;;;;;10.93;6.97;;;;;;;11.84;81.30;100719.91;6193341;28;20159;-72
2023/10/11 00:11:20;;;;;;;7.43;4.50;;;;;;;11.80;80.03;100728.91;6190267;28;20435;-72
2023/10/11 00:14:21;;;;;;;12.57;4.88;;;;;;;11.75;79.78;100728.28;6191842;28;20054;-72
2023/10/11 00:17:24;;;;;;;11.77;5.97;;;;;;;11.73;79.60;100728.38;6189109;28;20054;-71
2023/10/11 00:20:31;;;;;;;8.75;4.80;;;;;;;11.77;80.31;100727.28;6183696;28;20057;-71
2023/10/11 00:23:31;;;;;;;8.18;4.28;;;;;;;11.79;80.53;100735.88;6192058;28;20078;-71
2023/10/11 00:26:34;;;;;;;9.63;4.25;;;;;;;11.80;81.06;100736.72;6190015;28;20058;-71
2023/10/11 00:29:39;;;;;;;8.43;4.47;;;;;;;11.82;81.60;100730.50;6190774;28;20387;-71
2023/10/11 00:32:40;;;;;;;9.18;4.35;;;;;;;11.79;81.34;100732.41;6187305;28;20050;-72
2023/10/11 00:35:48;;;;;;;5.90;3.33;;;;;;;11.73;81.14;100730.16;6191968;28;20052;-72
2023/10/11 00:38:51;;;;;;;6.18;3.55;;;;;;;11.68;80.54;100722.56;6191810;28;20042;-72
2023/10/11 00:41:53;;;;;;;8.10;4.07;;;;;;;11.70;81.02;100718.94;6192512;28;20050;-72
2023/10/11 00:44:54;;;;;;;;;;;;;;;11.66;82.27;100716.56;6196689;28;20485;-73
2023/10/11 00:47:55;;;;;;;8.48;4.47;;;;;;;11.64;81.59;100714.03;6191638;28;19967;-72
2023/10/11 00:50:57;;;;;;;11.93;4.53;;;;;;;11.56;80.87;100716.22;6189107;28;20058;-71
2023/10/11 00:54:03;;;;;;;7.80;4.10;;;;;;;11.53;79.99;100721.63;6194879;28;20734;-71
2023/10/11 00:57:05;;;;;;;11.25;4.05;;;;;;;11.50;79.54;100721.78;6196604;28;20042;-72
2023/10/11 01:00:13;;;;;;;9.23;4.35;;;;;;;11.53;80.21;100724.25;6195342;28;20059;-72
2023/10/11 01:03:13;;;;;;;10.05;4.07;;;;;;;11.55;81.47;100721.53;6195335;28;20112;-72
2023/10/11 01:06:16;;;;;;;6.57;3.83;;;;;;;11.54;81.87;100718.06;6193539;28;20046;-71
2023/10/11 01:09:21;;;;;;;14.43;3.78;;;;;;;11.53;82.24;100719.03;6191824;28;20065;-72
2023/10/11 01:12:22;;;;;;;9.70;4.28;;;;;;;11.54;82.36;100722.47;6187590;28;20057;-71
2023/10/11 01:15:23;;;;;;;7.63;3.92;;;;;;;11.52;82.15;100719.09;6194512;28;20137;-71
2023/10/11 01:18:24;;;;;;;7.40;4.18;;;;;;;11.54;82.08;100715.47;6195614;28;20043;-72
2023/10/11 01:21:32;;;;;;;6.28;3.58;;;;;;;11.49;80.75;100718.34;6195346;28;20398;-71
2023/10/11 01:24:33;;;;;;;5.90;3.75;;;;;;;11.51;80.56;100713.03;6195170;28;20478;-72
2023/10/11 01:27:37;;;;;;;7.93;3.50;;;;;;;11.52;79.94;100716.47;6193326;28;20050;-71
2023/10/11 01:30:37;;;;;;;7.55;3.65;;;;;;;11.58;79.20;100716.97;6196618;28;20093;-71
2023/10/11 01:33:42;;;;;;;9.13;3.75;;;;;;;11.60;79.68;100722.97;6195595;28;20066;-71
2023/10/11 01:36:46;;;;;;;5.78;3.78;;;;;;;11.68;78.61;100722.56;6201546;28;20057;-71
2023/10/11 01:39:49;;;;;;;11.65;3.95;;;;;;;11.72;77.90;100715.41;6193944;28;20111;-71
2023/10/11 01:42:53;;;;;;;8.98;4.03;;;;;;;11.73;77.83;100717.91;6194217;28;20127;-71
2023/10/11 01:45:54;;;;;;;6.57;3.75;;;;;;;11.66;79.38;100724.41;6193273;28;20528;-71
2023/10/11 01:48:57;;;;;;;7.25;3.70;;;;;;;11.57;80.02;100720.53;6192954;28;20051;-71
2023/10/11 01:51:59;;;;;;;11.10;3.80;;;;;;;11.52;80.03;100717.31;6194822;28;20429;-72
2023/10/11 01:55:01;;;;;;;9.98;3.28;;;;;;;11.46;81.19;100715.88;6193967;28;20058;-72
2023/10/11 01:58:06;;;;;;;9.88;3.80;;;;;;;11.46;81.11;100715.03;6194378;28;20570;-72
2023/10/11 02:01:24;;;;;;;10.43;3.65;;;;;;;11.38;80.93;100712.00;6178816;28;20050;-72
2023/10/11 02:04:29;;;;;;;13.25;4.20;;;;;;;11.35;80.66;100714.78;6195224;28;20058;-72
2023/10/11 02:07:31;;;;;;;9.65;3.90;;;;;;;11.26;81.12;100716.97;6194728;28;20131;-72
2023/10/11 02:10:36;;;;;;;5.80;3.85;;;;;;;11.23;81.45;100722.34;6195242;28;20065;-73
2023/10/11 02:13:39;;;;;;;9.43;3.53;;;;;;;11.21;82.31;100720.75;6196535;28;20058;-73
2023/10/11 02:16:40;;;;;;;10.13;4.00;;;;;;;11.21;82.42;100721.56;6171186;28;20073;-73
2023/10/11 02:19:41;;;;;;;9.10;4.10;;;;;;;11.21;81.86;100725.97;6171204;28;20101;-71
2023/10/11 02:22:44;;;;;;;9.10;4.45;;;;;;;11.23;81.77;100729.34;6195414;28;20570;-72
2023/10/11 02:25:46;;;;;;;7.50;3.33;;;;;;;11.24;81.16;100737.09;6195911;28;20486;-72
2023/10/11 02:28:51;;;;;;;7.90;3.67;;;;;;;11.26;80.88;100737.88;6195144;28;20047;-72
2023/10/11 02:31:53;;;;;;;8.23;4.55;;;;;;;11.28;81.57;100742.97;6195663;28;20091;-71
2023/10/11 02:34:54;;;;;;;12.15;4.10;;;;;;;11.29;81.31;100734.25;6195000;28;20050;-72
2023/10/11 02:38:02;;;;;;;6.40;3.95;;;;;;;11.25;81.09;100743.16;6192975;28;20046;-71
2023/10/11 02:41:03;;;;;;;10.15;4.63;;;;;;;11.26;81.04;100747.44;6196268;28;20111;-71
2023/10/11 02:44:04;;;;;;;13.27;4.45;;;;;;;11.22;80.55;100738.09;6194084;28;20487;-72
2023/10/11 02:47:11;;;;;;;8.87;4.40;;;;;;;11.27;79.36;100734.31;6194617;28;20133;-71
2023/10/11 02:50:12;;;;;;;7.68;4.05;;;;;;;11.22;79.41;100738.94;6194593;28;20046;-72
2023/10/11 02:53:36;;;;;;;8.38;4.28;;;;;;;11.22;80.46;100740.69;6195456;28;20046;-72
2023/10/11 02:56:51;;;;;;;8.40;4.30;;;;;;;11.24;79.50;100734.50;6194004;28;20521;-72
2023/10/11 02:59:56;;;;;;;17.92;4.85;;;;;;;11.25;78.88;100733.56;6195285;28;20456;-72
2023/10/11 03:02:57;;;;;;;11.68;4.45;;;;;;;11.27;78.60;100733.47;6193373;28;20057;-71
2023/10/11 03:05:58;;;;;;;8.35;4.43;;;;;;;11.25;79.16;100736.16;6192271;28;20498;-71
2023/10/11 03:08:59;;;;;;;7.40;5.03;;;;;;;11.22;80.47;100733.72;6192331;28;20046;-72
2023/10/11 03:12:10;;;;;;;9.52;4.55;;;;;;;11.22;80.84;100738.94;6193967;28;20057;-72
2023/10/11 03:15:14;;;;;;;8.02;4.57;;;;;;;11.22;80.41;100736.34;6193894;28;20054;-72
2023/10/11 03:18:15;;;;;;;12.63;4.57;;;;;;;11.21;81.12;100739.84;6171209;28;20046;-72
2023/10/11 03:21:17;;;;;;;18.90;4.75;;;;;;;11.23;81.74;100743.25;6180684;28;20061;-72
2023/10/11 03:24:19;;;;;;;8.30;4.72;;;;;;;11.22;81.83;100740.69;6193816;28;20141;-72
2023/10/11 03:27:23;;;;;;;10.45;4.63;;;;;;;11.22;82.23;100738.09;6193660;28;20050;-71
2023/10/11 03:30:24;;;;;;;9.25;5.20;;;;;;;11.26;81.93;100739.59;6194627;28;20486;-71
2023/10/11 03:33:26;;;;;;;12.20;4.90;;;;;;;11.29;80.95;100740.31;6192975;28;20592;-71
2023/10/11 03:36:32;;;;;;;7.53;4.85;;;;;;;11.33;81.00;100748.81;6191134;28;20145;-72
2023/10/11 03:42:50;;;;;;;17.52;4.68;;;;;;;11.40;79.67;100739.72;6194145;28;20093;-72
2023/10/11 03:45:51;;;;;;;9.43;4.25;;;;;;;11.44;80.47;100746.47;6194534;28;20050;-72
2023/10/11 03:49:02;;;;;;;8.85;4.65;;;;;;;11.48;79.99;100748.00;6191075;28;20505;-72
2023/10/11 03:52:19;;;;;;;8.98;4.63;;;;;;;11.46;79.84;100739.38;6193469;28;20478;-72
2023/10/11 03:55:19;;;;;;;14.95;4.97;;;;;;;11.52;80.88;100740.00;6189211;28;20560;-72
2023/10/11 04:01:37;;;;;;;9.30;5.00;;;;;;;11.46;81.31;100741.16;6194037;28;20054;-71
2023/10/11 04:04:42;;;;;;;19.77;4.78;;;;;;;11.53;81.41;100739.06;6192541;28;20046;-72
2023/10/11 04:07:44;;;;;;;8.50;4.50;;;;;;;11.52;80.81;100738.22;6187133;28;20487;-72
2023/10/11 04:10:49;;;;;;;8.05;4.45;;;;;;;11.50;80.53;100730.47;6193008;28;20046;-72
2023/10/11 04:13:51;;;;;;;7.80;4.75;;;;;;;11.51;81.05;100741.78;6193251;28;20054;-72
2023/10/11 04:16:53;;;;;;;10.43;5.15;;;;;;;11.51;80.30;100744.41;6192322;28;20055;-72
2023/10/11 04:20:17;;;;;;;12.32;4.93;;;;;;;11.57;80.03;100745.81;6194322;28;20199;-72
2023/10/11 04:23:24;;;;;;;8.30;4.57;;;;;;;11.62;79.12;100741.19;6193929;28;20061;-71
2023/10/11 04:29:31;;;;;;;8.70;4.90;;;;;;;11.67;79.59;100744.38;6170565;28;20061;-71
2023/10/11 04:35:43;;;;;;;11.50;4.82;;;;;;;11.64;79.82;100747.19;6194080;28;20057;-71
2023/10/11 04:38:47;;;;;;;7.30;4.57;;;;;;;11.55;79.14;100756.38;6193516;28;20077;-71
2023/10/11 04:41:52;;;;;;;10.55;4.78;;;;;;;11.51;79.62;100749.63;6192170;28;20056;-71
2023/10/11 04:44:56;;;;;;;11.02;5.45;;;;;;;11.54;80.86;100751.22;6194102;28;20050;-72
2023/10/11 04:47:58;;;;;;;11.95;5.07;;;;;;;11.60;80.89;100751.72;6192937;28;20131;-72
2023/10/11 04:51:04;;;;;;;8.40;4.32;;;;;;;11.60;81.45;100751.72;6192502;28;20046;-72
2023/10/11 04:54:13;;;;;;;10.88;4.63;;;;;;;11.66;81.16;100753.16;6192531;28;20050;-72
2023/10/11 04:57:17;;;;;;;8.02;4.68;;;;;;;11.67;80.90;100754.84;6191852;28;20061;-71
2023/10/11 05:00:21;;;;;;;7.47;4.85;;;;;;;11.76;81.50;100763.97;6193569;28;20050;-71
2023/10/11 05:03:29;;;;;;;17.45;6.18;;;;;;;11.81;81.86;100760.16;6192727;28;20047;-73
2023/10/11 05:06:39;;;;;;;9.13;4.90;;;;;;;11.79;80.88;100748.09;6194015;28;20050;-71
2023/10/11 05:09:41;;;;;;;19.13;5.43;;;;;;;11.82;79.72;100761.00;6192483;28;20133;-72
2023/10/11 05:12:44;;;;;;;13.43;4.72;;;;;;;11.79;79.39;100759.41;6193473;28;20051;-72
2023/10/11 05:15:47;;;;;;;16.15;5.35;;;;;;;11.86;79.62;100760.75;6186283;28;20051;-71
2023/10/11 05:18:49;;;;;;;19.42;5.22;;;;;;;11.91;79.49;100759.69;6185141;28;20418;-72
2023/10/11 05:21:53;;;;;;;12.52;4.63;;;;;;;11.94;80.09;100762.13;6193445;28;20061;-72
2023/10/11 05:28:15;;;;;;;21.85;5.60;;;;;;;12.00;81.27;100780.09;6194179;28;20561;-71
2023/10/11 05:34:45;;;;;;;14.50;5.53;;;;;;;12.08;79.43;100790.97;6197253;28;20046;-72
2023/10/11 05:51:19;;;;;;;8.10;4.13;;;;;;;12.32;78.06;100814.09;6197286;28;20058;-72
2023/10/11 05:54:21;;;;;;;8.05;4.63;;;;;;;12.32;77.37;100801.84;6196725;28;20142;-71
2023/10/11 05:57:24;;;;;;;;;;;;;;;12.36;77.74;100821.69;6196119;28;20414;-71
2023/10/11 06:00:26;;;;;;;6.15;3.35;;;;;;;12.38;77.33;100814.59;6196857;28;20012;-71
2023/10/11 06:03:28;;;;;;;7.65;3.75;;;;;;;12.38;77.90;100821.59;6195776;28;20062;-71
2023/10/11 06:06:42;;;;;;;9.20;3.65;;;;;;;12.39;78.13;100812.81;6197115;28;20475;-71
2023/10/11 06:09:43;;;;;;;15.27;3.75;;;;;;;12.42;78.83;100823.13;6196662;28;20138;-71
2023/10/11 06:12:45;;;;;;;6.30;4.03;;;;;;;12.45;79.63;100822.94;6195555;28;20104;-72
2023/10/11 06:15:58;;;;;;;;;;;;;;;12.50;79.11;100818.31;6197240;28;20058;-71
2023/10/11 06:19:15;;;;;;;6.65;3.42;;;;;;;12.51;78.93;100817.34;6195301;28;19921;-71
2023/10/11 06:22:16;;;;;;;11.77;4.10;;;;;;;12.53;77.96;100823.34;6196357;28;20090;-71
2023/10/11 06:25:22;;;;;;;20.27;4.82;;;;;;;12.62;77.83;100820.22;6196252;28;20544;-72
2023/10/11 06:28:30;;;;;;;13.88;6.45;;;;;;;12.59;77.10;100816.94;6196187;28;20050;-72
2023/10/11 06:31:43;;;;;;;66.72;19.25;;;;;;;12.61;76.88;100813.28;6196178;28;20051;-71
2023/10/11 06:34:47;;;;;;;44.53;18.38;;;;;;;12.77;78.38;100825.50;6195000;28;20468;-71
2023/10/11 06:37:52;;;;;;;27.27;11.90;;;;;;;12.82;78.27;100823.44;6196123;28;20194;-71
2023/10/11 06:41:36;;;;;;;19.42;8.57;;;;;;;12.87;78.05;100829.28;6195235;28;20086;-71
2023/10/11 06:44:18;;;;;;;13.82;6.05;;;;;;;12.89;77.83;100830.03;6195972;28;20054;-71
2023/10/11 06:47:22;;;;;;;17.67;5.70;;;;;;;12.94;77.73;100829.75;6195774;28;20468;-71
2023/10/11 06:50:24;;;;;;;20.30;6.72;;;;;;;12.90;76.62;100840.41;6194694;28;20086;-71
2023/10/11 06:53:28;;;;;;;19.88;6.93;;;;;;;12.82;76.62;100836.53;6195812;28;20490;-71
2023/10/11 06:56:32;;;;;;;17.02;5.38;;;;;;;12.93;75.14;100841.16;6194611;28;20066;-71
2023/10/11 06:59:33;;;;;;;15.20;5.55;;;;;;;12.92;75.54;100836.84;6195874;28;20047;-72
2023/10/11 07:02:34;;;;;;;16.92;6.80;;;;;;;12.91;74.67;100846.50;6194628;28;20179;-71
2023/10/11 07:05:45;;;;;;;10.70;5.25;;;;;;;12.85;74.74;100847.69;6195596;28;20109;-72
2023/10/11 07:08:58;;;;;;;12.23;5.53;;;;;;;12.84;75.26;100853.00;6194350;28;20073;-72
2023/10/11 07:15:41;;;;;;;11.25;4.80;;;;;;;13.03;74.90;100853.66;6217974;28;20050;-71
2023/10/11 07:18:43;;;;;;;18.88;5.20;;;;;;;13.08;75.03;100858.59;6194332;28;20042;-71
2023/10/11 07:24:55;;;;;;;12.23;4.68;;;;;;;13.34;75.13;100846.59;6195411;28;20491;-71
2023/10/11 07:28:02;;;;;;;17.58;4.40;;;;;;;13.44;74.67;100841.66;6195079;28;20133;-72
2023/10/11 07:31:04;;;;;;;13.43;3.58;;;;;;;13.47;74.55;100850.19;6194470;28;20053;-73
2023/10/11 07:34:06;;;;;;;18.43;4.03;;;;;;;13.55;75.11;100852.34;6195160;28;20053;-72
2023/10/11 07:37:07;;;;;;;26.20;4.82;;;;;;;13.54;74.96;100847.19;6195330;28;20276;-72
2023/10/11 07:40:12;;;;;;;10.27;4.90;;;;;;;13.53;75.55;100851.59;6194970;28;20046;-71
2023/10/11 07:43:16;;;;;;;24.30;4.80;;;;;;;13.60;74.38;100845.03;6195264;28;20057;-71
2023/10/11 07:46:21;;;;;;;7.93;4.28;;;;;;;13.71;74.37;100849.59;6194778;28;20422;-71
2023/10/11 07:49:24;;;;;;;9.85;5.00;;;;;;;13.77;74.79;100849.22;6194934;28;20054;-71
2023/10/11 07:52:25;;;;;;;8.63;4.68;;;;;;;13.93;73.87;100841.25;6193367;28;20137;-71
2023/10/11 07:55:26;;;;;;;14.13;3.88;;;;;;;13.90;73.90;100834.41;6194743;28;20098;-71
2023/10/11 07:58:32;;;;;;;20.27;4.22;;;;;;;14.11;73.92;100837.47;6193545;28;20058;-71
2023/10/11 08:01:42;;;;;;;14.80;4.05;;;;;;;14.37;73.29;100842.84;6194497;28;20249;-72
2023/10/11 08:04:47;;;;;;;8.32;4.25;;;;;;;14.52;72.50;100848.91;6193582;28;20149;-71
2023/10/11 08:07:48;;;;;;;8.32;3.92;;;;;;;14.87;71.44;100843.16;6194340;28;20442;-71
2023/10/11 08:10:52;;;;;;;13.45;4.03;;;;;;;14.91;70.37;100844.63;6193211;28;20057;-71
2023/10/11 08:13:59;;;;;;;10.02;3.92;;;;;;;14.94;69.93;100847.03;6193260;28;20056;-71
2023/10/11 08:17:06;;;;;;;5.95;3.50;;;;;;;15.16;70.72;100840.34;6193404;28;20054;-71
2023/10/11 08:20:15;;;;;;;8.20;4.15;;;;;;;15.14;69.61;100840.44;6194295;28;20050;-71
2023/10/11 08:23:28;;;;;;;12.05;3.38;;;;;;;15.36;68.57;100838.97;6194361;28;20050;-71
2023/10/11 08:26:42;;;;;;;6.22;3.97;;;;;;;15.34;68.18;100838.22;6194039;28;20058;-72
2023/10/11 08:29:43;;;;;;;8.27;3.20;;;;;;;15.28;68.50;100840.34;6192995;28;20052;-71
2023/10/11 08:32:46;;;;;;;6.13;2.90;;;;;;;15.45;68.54;100849.72;6192855;28;20050;-71
2023/10/11 08:35:53;;;;;;;4.25;2.67;;;;;;;15.45;68.08;100854.97;6194078;28;20058;-71
2023/10/11 08:38:55;;;;;;;8.18;3.30;;;;;;;15.51;68.23;100853.72;6194032;28;20046;-71
2023/10/11 08:41:58;;;;;;;9.32;4.47;;;;;;;15.70;68.82;100858.53;6194102;28;20054;-72
2023/10/11 08:45:00;;;;;;;;;;;;;;;15.84;69.13;100862.88;6194393;28;20521;-72
2023/10/11 08:48:05;;;;;;;4.80;2.80;;;;;;;15.74;67.85;100846.03;6194211;28;19929;-71
2023/10/11 08:51:13;;;;;;;17.90;3.42;;;;;;;15.99;67.88;100850.41;6193790;28;20101;-72
2023/10/11 08:54:16;;;;;;;15.13;3.78;;;;;;;16.21;68.31;100855.00;6193735;28;20090;-73
2023/10/11 08:57:31;;;;;;;16.77;3.30;;;;;;;16.24;67.51;100854.75;6193690;28;20417;-73
2023/10/11 09:00:33;;;;;;;13.80;2.85;;;;;;;16.41;67.19;100854.38;6194057;28;20468;-72
2023/10/11 09:03:40;;;;;;;4.15;2.83;;;;;;;16.46;67.20;100852.25;6195354;28;20054;-72
2023/10/11 09:06:45;;;;;;;11.13;3.25;;;;;;;16.42;67.46;100850.78;6198333;28;20057;-73
2023/10/11 09:09:51;;;;;;;9.65;3.50;;;;;;;16.35;67.86;100859.22;6197770;28;20180;-72
2023/10/11 09:12:56;;;;;;;11.13;3.65;;;;;;;16.41;68.77;100857.03;6196819;28;20051;-72
2023/10/11 09:15:57;;;;;;;9.48;3.50;;;;;;;16.34;69.00;100854.94;6196412;28;20058;-72
2023/10/11 09:19:05;;;;;;;8.68;3.70;;;;;;;16.37;69.08;100855.56;6198062;28;20426;-72
2023/10/11 09:22:17;;;;;;;9.98;5.03;;;;;;;16.46;69.45;100861.94;6196404;28;20137;-71
2023/10/11 09:25:26;;;;;;;7.10;3.10;;;;;;;16.60;69.73;100866.22;6197880;28;20050;-72
2023/10/11 09:28:33;;;;;;;9.05;4.45;;;;;;;16.81;69.71;100863.81;6197427;28;20052;-72
2023/10/11 09:31:35;;;;;;;6.43;3.47;;;;;;;16.81;69.49;100863.81;6197470;28;20194;-72
2023/10/11 09:34:41;;;;;;;13.25;4.13;;;;;;;16.97;69.12;100866.97;6196269;28;20641;-72
2023/10/11 09:37:46;;;;;;;10.27;6.10;;;;;;;17.01;68.95;100867.59;6196424;28;20099;-72
2023/10/11 09:40:47;;;;;;;16.95;4.18;;;;;;;17.07;68.87;100865.34;6197366;28;20054;-72
2023/10/11 09:43:48;;;;;;;12.98;5.10;;;;;;;17.06;69.06;100854.91;6197162;28;20050;-72
2023/10/11 09:46:49;;;;;;;17.13;4.13;;;;;;;17.08;68.66;100861.72;6197472;28;20164;-72
2023/10/11 09:49:53;;;;;;;15.18;4.47;;;;;;;17.21;69.37;100861.63;6195839;28;20050;-71
2023/10/11 09:52:57;;;;;;;8.98;4.28;;;;;;;17.26;68.38;100848.94;6197197;28;20058;-71
2023/10/11 09:56:15;;;;;;;8.80;3.80;;;;;;;17.27;68.71;100841.88;6195827;28;20061;-71
2023/10/11 09:59:40;;;;;;;10.50;4.15;;;;;;;17.34;68.70;100845.72;6197167;28;20043;-72
2023/10/11 10:02:46;;;;;;;6.50;3.72;;;;;;;17.39;68.83;100850.66;6196901;28;20054;-71
2023/10/11 10:06:18;;;;;;;14.52;6.75;;;;;;;17.58;68.58;100848.25;6197052;28;20054;-72
2023/10/11 10:12:25;;;;;;;9.75;2.95;;;;;;;17.81;68.20;100866.72;6196640;28;20060;-71
2023/10/11 10:15:36;;;;;;;11.27;4.30;;;;;;;17.59;68.58;100854.38;6195682;28;20050;-71
2023/10/11 10:18:39;;;;;;;7.80;4.00;;;;;;;17.75;68.95;100849.59;6196581;28;20110;-71
2023/10/11 10:22:15;;;;;;;6.13;4.05;;;;;;;17.80;68.92;100844.78;6196536;28;20061;-71
2023/10/11 10:25:19;;;;;;;11.43;4.05;;;;;;;18.27;68.65;100841.97;6196452;28;20410;-72
2023/10/11 10:28:39;;;;;;;7.25;4.40;;;;;;;18.26;68.28;100845.56;6195190;28;20414;-71
2023/10/11 10:32:03;;;;;;;6.78;4.15;;;;;;;18.31;68.79;100846.06;6195127;28;20518;-71
2023/10/11 10:35:18;;;;;;;14.43;4.43;;;;;;;18.19;68.29;100847.03;6196213;28;20094;-71
2023/10/11 10:38:22;;;;;;;8.57;4.63;;;;;;;18.22;68.35;100845.00;6196348;28;20054;-71
2023/10/11 10:41:27;;;;;;;10.73;4.75;;;;;;;18.26;68.25;100835.88;6196177;28;20414;-71
2023/10/11 10:44:29;;;;;;;8.95;4.13;;;;;;;18.65;68.17;100832.72;6196016;28;20058;-72
2023/10/11 10:47:32;;;;;;;13.52;4.78;;;;;;;18.80;66.90;100835.91;6195882;28;20418;-72
2023/10/11 10:50:48;;;;;;;14.20;4.25;;;;;;;19.33;66.33;100828.75;6195941;28;20051;-72
2023/10/11 10:53:53;;;;;;;11.57;4.78;;;;;;;19.50;64.51;100824.66;6194546;28;20070;-72
2023/10/11 10:56:54;;;;;;;8.80;4.20;;;;;;;20.00;65.83;100828.34;6194776;28;20418;-72
2023/10/11 10:59:55;;;;;;;11.80;4.70;;;;;;;19.95;64.11;100817.28;6196051;28;20126;-72
2023/10/11 11:02:56;;;;;;;11.98;4.78;;;;;;;20.17;63.93;100822.34;6195684;28;20051;-72
2023/10/11 11:05:59;;;;;;;7.78;5.55;;;;;;;19.96;64.42;100818.97;6195893;28;20058;-72
2023/10/11 11:09:00;;;;;;;11.98;5.75;;;;;;;19.97;64.23;100816.19;6194432;28;20548;-72
2023/10/11 11:12:14;;;;;;;9.02;4.97;;;;;;;20.10;63.86;100803.53;6194589;28;20050;-72
2023/10/11 11:15:25;;;;;;;16.17;5.30;;;;;;;20.43;63.60;100813.88;6194217;28;20054;-72
2023/10/11 11:18:33;;;;;;;15.27;5.43;;;;;;;20.11;63.19;100805.19;6195622;28;20056;-72
2023/10/11 11:21:44;;;;;;;11.10;5.65;;;;;;;20.28;62.19;100805.50;6194219;28;20061;-72
2023/10/11 11:24:52;;;;;;;11.38;5.43;;;;;;;20.54;61.40;100789.88;6194097;28;20628;-71
2023/10/11 11:28:14;;;;;;;11.73;5.85;;;;;;;20.60;61.26;100786.69;6194630;28;20494;-71
2023/10/11 11:34:28;;;;;;;21.63;7.95;;;;;;;21.51;59.30;100783.56;6194826;28;20380;-72
2023/10/11 11:37:34;;;;;;;13.23;4.63;;;;;;;21.29;58.86;100788.22;6194557;28;20046;-72
2023/10/11 11:40:38;;;;;;;10.00;4.95;;;;;;;21.34;58.47;100788.63;6194405;28;20410;-72
2023/10/11 11:43:38;;;;;;;11.32;4.30;;;;;;;21.38;58.82;100775.91;6194957;28;20054;-71
2023/10/11 11:46:39;;;;;;;12.03;4.33;;;;;;;21.22;59.31;100773.84;6194936;28;20054;-72
2023/10/11 11:49:42;;;;;;;12.83;4.13;;;;;;;21.42;57.93;100773.78;6193972;28;20410;-72
2023/10/11 11:52:43;;;;;;;11.88;4.00;;;;;;;21.41;57.83;100769.44;6194744;28;20086;-72
2023/10/11 11:55:46;;;;;;;10.63;4.40;;;;;;;21.40;58.00;100775.75;6194400;28;20426;-72
2023/10/11 11:58:47;;;;;;;9.35;3.70;;;;;;;21.48;57.48;100782.03;6192045;28;20548;-72
2023/10/11 12:01:49;;;;;;;9.67;4.03;;;;;;;21.72;56.91;100770.88;6194931;28;20057;-71
2023/10/11 12:04:50;;;;;;;12.88;3.75;;;;;;;21.65;56.90;100766.28;6193473;28;20054;-71
2023/10/11 12:07:57;;;;;;;7.63;3.80;;;;;;;21.53;57.01;100774.44;6194834;28;20053;-71
2023/10/11 12:10:58;;;;;;;6.22;3.45;;;;;;;21.34;57.25;100764.72;6188584;28;20050;-71
2023/10/11 12:14:04;;;;;;;8.77;3.70;;;;;;;21.56;58.28;100752.09;6193477;28;20050;-71
2023/10/11 12:17:11;;;;;;;8.07;3.50;;;;;;;21.78;57.11;100755.31;6194404;28;20457;-73
2023/10/11 12:20:16;;;;;;;6.38;3.95;;;;;;;21.71;57.87;100755.91;6192653;28;20042;-72
2023/10/11 12:23:18;;;;;;;9.55;3.85;;;;;;;21.75;56.92;100750.31;6179107;28;20062;-72
2023/10/11 12:26:20;;;;;;;10.38;4.45;;;;;;;21.55;57.38;100752.25;6170697;28;20100;-72
2023/10/11 12:29:21;;;;;;;8.43;3.65;;;;;;;21.71;57.55;100750.59;6193128;28;20046;-72
2023/10/11 12:32:22;;;;;;;17.53;3.70;;;;;;;21.54;57.54;100746.09;6194345;28;20153;-72
2023/10/11 12:35:28;;;;;;;11.60;4.00;;;;;;;21.43;57.59;100749.75;6184341;28;20046;-71
2023/10/11 12:38:29;;;;;;;10.25;3.78;;;;;;;21.64;57.87;100741.56;6179645;28;20528;-72
2023/10/11 12:41:30;;;;;;;7.03;3.50;;;;;;;21.48;57.51;100739.56;6191609;28;20050;-72
2023/10/11 12:44:31;;;;;;;10.18;3.50;;;;;;;21.66;56.67;100742.25;6197008;28;20051;-72
2023/10/11 12:47:32;;;;;;;7.03;3.73;;;;;;;21.78;56.93;100734.06;6197675;28;20073;-73
2023/10/11 12:50:36;;;;;;;6.97;3.73;;;;;;;21.72;57.37;100727.53;6197247;28;20215;-72
2023/10/11 12:53:37;;;;;;;7.45;3.72;;;;;;;21.44;57.99;100738.19;6198592;28;20058;-72
2023/10/11 12:56:38;;;;;;;12.37;3.67;;;;;;;21.44;57.78;100722.25;6197096;28;20096;-73
2023/10/11 13:13:08;;;;;;;3.83;2.63;;;;;;;21.37;58.57;100714.97;6239540;28;20411;-72
2023/10/11 13:16:09;;;;;;;10.98;2.78;;;;;;;21.65;57.74;100710.53;6238538;28;20084;-72
2023/10/11 13:19:18;;;;;;;9.55;3.50;;;;;;;21.79;57.07;100703.88;6239255;28;20053;-72
2023/10/11 13:22:19;;;;;;;6.07;2.90;;;;;;;21.62;57.02;100706.38;6238190;28;20049;-72
2023/10/11 13:25:23;;;;;;;18.40;3.00;;;;;;;21.59;57.03;100703.16;6237760;28;20493;-72
2023/10/11 13:28:26;;;;;;;4.30;2.75;;;;;;;21.51;57.43;100694.09;6238083;28;20058;-72
2023/10/11 13:31:29;;;;;;;6.50;2.90;;;;;;;21.47;57.67;100698.03;6239067;28;20500;-72
2023/10/11 13:34:36;;;;;;;10.18;3.05;;;;;;;21.63;57.87;100693.91;6239264;28;20053;-72
2023/10/11 13:37:36;;;;;;;6.35;2.67;;;;;;;21.32;58.16;100686.25;6236691;28;20571;-72
2023/10/11 13:40:40;;;;;;;10.33;3.07;;;;;;;21.37;58.07;100688.44;6237916;28;20050;-72
2023/10/11 13:43:44;;;;;;;5.55;2.85;;;;;;;21.59;57.69;100684.56;6235726;28;20283;-73
2023/10/11 13:46:51;;;;;;;13.02;2.92;;;;;;;21.31;57.95;100680.09;6214420;28;20061;-72
2023/10/11 13:49:59;;;;;;;5.25;3.15;;;;;;;21.38;58.29;100674.19;6222528;28;20053;-72
2023/10/11 13:53:00;;;;;;;5.05;2.30;;;;;;;21.10;58.43;100677.66;6216519;28;20050;-72
2023/10/11 13:56:10;;;;;;;5.32;3.03;;;;;;;21.34;57.91;100661.22;6219173;28;20046;-72
2023/10/11 13:59:11;;;;;;;8.18;3.17;;;;;;;21.43;58.32;100666.66;6222788;28;20056;-72
2023/10/11 14:02:33;;;;;;;7.30;2.47;;;;;;;21.23;59.03;100655.25;6233553;28;20042;-72
2023/10/11 14:05:38;;;;;;;4.63;2.60;;;;;;;21.17;59.14;100651.41;6212995;28;20522;-73
2023/10/11 14:08:44;;;;;;;6.60;2.45;;;;;;;21.14;58.99;100649.03;6212721;28;20050;-72
2023/10/11 14:11:48;;;;;;;5.95;2.40;;;;;;;21.09;58.89;100643.34;6209772;28;20417;-72
2023/10/11 14:14:52;;;;;;;8.18;2.85;;;;;;;20.99;58.40;100646.03;6197047;28;20051;-72
2023/10/11 14:17:55;;;;;;;10.25;2.67;;;;;;;20.91;58.77;100644.13;6209341;28;20057;-72
2023/10/11 14:21:01;;;;;;;6.57;2.30;;;;;;;20.97;59.32;100642.69;6220801;28;20519;-73
2023/10/11 14:24:02;;;;;;;8.85;2.22;;;;;;;21.05;59.46;100645.44;6217648;28;20492;-73
2023/10/11 14:27:07;;;;;;;6.80;2.50;;;;;;;20.97;58.87;100636.56;6199934;28;20413;-73
2023/10/11 14:30:12;;;;;;;9.18;2.38;;;;;;;20.96;59.63;100637.53;6200819;28;20042;-73
2023/10/11 14:33:13;;;;;;;5.05;2.40;;;;;;;21.11;59.09;100633.44;6218637;28;20456;-73
2023/10/11 14:36:14;;;;;;;8.80;2.37;;;;;;;21.06;59.11;100635.66;6220267;28;20053;-74
2023/10/11 14:39:17;;;;;;;14.40;2.80;;;;;;;21.08;59.41;100639.00;6221556;28;20050;-74
2023/10/11 14:42:18;;;;;;;6.80;2.05;;;;;;;20.90;59.70;100631.03;6221578;28;20050;-73
2023/10/11 14:45:22;;;;;;;4.77;2.40;;;;;;;20.76;59.91;100626.19;6221576;28;20409;-73
2023/10/11 14:48:25;;;;;;;5.20;2.58;;;;;;;20.83;59.84;100632.56;6221557;28;20497;-73
2023/10/11 14:51:29;;;;;;;4.10;2.30;;;;;;;20.70;60.30;100636.38;6220954;28;20062;-72
2023/10/11 15:05:29;;;;;;;10.32;3.13;;;;;;;20.65;60.11;100635.16;6336439;27;20405;-73
2023/10/11 15:08:31;;;;;;;9.23;3.47;;;;;;;20.72;60.48;100636.25;6312154;28;20079;-73
2023/10/11 15:11:34;;;;;;;15.07;5.67;;;;;;;20.57;61.17;100632.34;6327640;28;20097;-73
2023/10/11 15:14:35;;;;;;;7.13;3.30;;;;;;;20.42;60.89;100630.16;6320850;28;20049;-73
2023/10/11 15:17:40;;;;;;;7.38;3.00;;;;;;;20.48;61.24;100631.41;6329676;28;20188;-72
2023/10/11 15:20:41;;;;;;;7.50;2.20;;;;;;;20.26;61.76;100636.06;6322312;28;20076;-72
2023/10/11 15:23:44;;;;;;;3.88;2.15;;;;;;;20.12;62.04;100632.03;6317365;28;20376;-72
2023/10/11 15:26:47;;;;;;;11.23;2.20;;;;;;;20.21;62.10;100632.16;6318455;28;20377;-72